createdAt,value
2023-02-27T00:00:13.616Z,3.85
2023-02-27T00:02:42.020Z,3.72
2023-02-27T00:05:11.750Z,3.92
2023-02-27T00:07:38.975Z,3.78
2023-02-27T00:10:06.538Z,4.15
2023-02-27T00:12:33.648Z,4.07
2023-02-27T00:15:00.828Z,3.70
2023-02-27T00:17:27.742Z,3.60
2023-02-27T00:19:54.956Z,3.33
2023-02-27T00:22:23.162Z,3.55
2023-02-27T00:24:50.101Z,3.17
2023-02-27T00:27:17.160Z,3.60
2023-02-27T00:29:44.104Z,3.92
2023-02-27T00:32:11.047Z,3.45
2023-02-27T00:34:37.972Z,3.65
2023-02-27T00:37:04.906Z,4.07
2023-02-27T00:39:31.854Z,4.07
2023-02-27T00:41:58.745Z,4.15
2023-02-27T00:44:25.647Z,4.20
2023-02-27T00:46:52.577Z,4.32
2023-02-27T00:49:19.525Z,4.35
2023-02-27T00:51:46.423Z,4.25
2023-02-27T00:54:13.320Z,4.47
2023-02-27T00:56:40.204Z,4.70
2023-02-27T00:59:07.126Z,4.68
2023-02-27T01:01:34.031Z,4.55
2023-02-27T01:04:00.974Z,4.30
2023-02-27T01:06:28.910Z,4.10
2023-02-27T01:08:55.827Z,4.00
2023-02-27T01:11:25.961Z,3.88
2023-02-27T01:13:53.058Z,3.75
2023-02-27T01:16:20.007Z,3.85
2023-02-27T01:18:46.949Z,3.60
2023-02-27T01:21:13.906Z,4.13
2023-02-27T01:23:41.313Z,4.72
2023-02-27T01:26:08.229Z,4.82
2023-02-27T01:28:35.218Z,4.38
2023-02-27T01:31:02.192Z,4.85
2023-02-27T01:33:29.129Z,4.35
2023-02-27T01:35:56.040Z,4.70
2023-02-27T01:38:22.977Z,5.13
2023-02-27T01:40:49.895Z,4.57
2023-02-27T01:43:16.801Z,4.53
2023-02-27T01:45:44.044Z,4.65
2023-02-27T01:48:12.057Z,4.22
2023-02-27T01:50:38.963Z,5.03
2023-02-27T01:53:05.867Z,4.55
2023-02-27T01:55:32.793Z,4.63
2023-02-27T01:57:59.699Z,4.00
2023-02-27T02:00:26.678Z,3.97
2023-02-27T02:02:53.588Z,3.97
2023-02-27T02:05:20.517Z,4.38
2023-02-27T02:07:47.465Z,3.95
2023-02-27T02:10:14.410Z,3.80
2023-02-27T02:12:41.384Z,3.75
2023-02-27T02:15:08.265Z,4.20
2023-02-27T02:17:35.143Z,4.22
2023-02-27T02:20:02.051Z,3.63
2023-02-27T02:22:28.981Z,3.70
2023-02-27T02:24:55.904Z,4.05
2023-02-27T02:27:22.821Z,3.90
2023-02-27T02:29:49.753Z,3.63
2023-02-27T02:32:16.715Z,3.17
2023-02-27T02:34:43.697Z,3.88
2023-02-27T02:37:10.600Z,3.47
2023-02-27T02:39:37.504Z,3.45
2023-02-27T02:42:04.385Z,3.60
2023-02-27T02:44:31.340Z,4.13
2023-02-27T02:46:58.245Z,3.50
2023-02-27T02:49:25.436Z,3.53
2023-02-27T02:51:52.335Z,3.72
2023-02-27T02:54:19.231Z,3.63
2023-02-27T02:56:46.161Z,3.65
2023-02-27T02:59:13.106Z,3.80
2023-02-27T03:01:40.070Z,3.60
2023-02-27T03:04:07.132Z,4.00
2023-02-27T03:06:34.293Z,3.53
2023-02-27T03:09:01.224Z,4.25
2023-02-27T03:11:28.460Z,3.85
2023-02-27T03:13:55.549Z,4.00
2023-02-27T03:16:22.454Z,4.00
2023-02-27T03:18:49.366Z,4.38
2023-02-27T03:21:16.276Z,3.58
2023-02-27T03:23:43.208Z,3.83
2023-02-27T03:26:10.155Z,4.25
2023-02-27T03:28:37.097Z,3.85
2023-02-27T03:31:04.085Z,3.70
2023-02-27T03:33:31.002Z,4.28
2023-02-27T03:35:57.932Z,3.10
2023-02-27T03:38:24.845Z,3.88
2023-02-27T03:40:51.810Z,3.80
2023-02-27T03:43:18.700Z,4.03
2023-02-27T03:45:45.607Z,3.58
2023-02-27T03:48:12.543Z,3.85
2023-02-27T03:50:39.444Z,3.75
2023-02-27T03:53:06.389Z,3.90
2023-02-27T03:55:33.334Z,3.72
2023-02-27T03:58:00.315Z,3.95
2023-02-27T04:00:27.317Z,3.67
2023-02-27T04:02:54.314Z,4.07
2023-02-27T04:05:21.274Z,3.85
2023-02-27T04:07:48.199Z,3.88
2023-02-27T04:10:15.119Z,4.03
2023-02-27T04:12:42.943Z,3.97
2023-02-27T04:15:10.717Z,3.85
2023-02-27T04:17:37.628Z,4.20
2023-02-27T04:20:04.550Z,4.03
2023-02-27T04:22:31.448Z,4.13
2023-02-27T04:24:58.381Z,4.47
2023-02-27T04:27:25.548Z,3.90
2023-02-27T04:29:52.456Z,4.00
2023-02-27T04:32:19.458Z,4.15
2023-02-27T04:34:46.511Z,4.10
2023-02-27T04:37:13.422Z,3.90
2023-02-27T04:39:40.334Z,3.63
2023-02-27T04:42:07.323Z,4.28
2023-02-27T04:44:34.274Z,3.92
2023-02-27T04:47:01.155Z,3.85
2023-02-27T04:49:29.007Z,3.97
2023-02-27T04:51:55.947Z,4.05
2023-02-27T04:54:23.097Z,4.47
2023-02-27T04:56:50.368Z,4.40
2023-02-27T04:59:17.280Z,4.45
2023-02-27T05:01:44.279Z,4.40
2023-02-27T05:04:11.239Z,3.65
2023-02-27T05:06:38.127Z,3.70
2023-02-27T05:09:05.135Z,4.07
2023-02-27T05:11:32.053Z,3.92
2023-02-27T05:13:59.001Z,4.10
2023-02-27T05:16:25.968Z,3.95
2023-02-27T05:18:52.881Z,4.68
2023-02-27T05:21:19.796Z,3.83
2023-02-27T05:23:47.056Z,4.32
2023-02-27T05:26:13.993Z,3.80
2023-02-27T05:28:40.884Z,3.95
2023-02-27T05:31:07.811Z,4.32
2023-02-27T05:33:34.865Z,3.95
2023-02-27T05:36:01.831Z,4.60
2023-02-27T05:38:28.739Z,3.97
2023-02-27T05:40:55.652Z,4.30
2023-02-27T05:43:22.547Z,4.70
2023-02-27T05:45:49.481Z,4.72
2023-02-27T05:48:19.135Z,4.57
2023-02-27T05:50:46.419Z,4.85
2023-02-27T05:53:13.319Z,4.82
2023-02-27T05:55:40.250Z,4.80
2023-02-27T05:58:07.170Z,4.50
2023-02-27T06:00:34.122Z,4.53
2023-02-27T06:03:01.096Z,4.70
2023-02-27T06:05:29.170Z,5.03
2023-02-27T06:07:56.083Z,5.45
2023-02-27T06:10:23.008Z,5.30
2023-02-27T06:12:49.910Z,5.15
2023-02-27T06:15:16.826Z,5.25
2023-02-27T06:17:43.741Z,5.05
2023-02-27T06:20:10.684Z,5.20
2023-02-27T06:22:37.596Z,5.13
2023-02-27T06:25:04.513Z,5.22
2023-02-27T06:27:31.430Z,5.78
2023-02-27T06:29:58.349Z,5.50
2023-02-27T06:32:25.285Z,4.95
2023-02-27T06:34:52.332Z,5.18
2023-02-27T06:37:19.285Z,4.80
2023-02-27T06:39:47.805Z,5.05
2023-02-27T06:42:22.236Z,4.93
2023-02-27T06:44:49.253Z,4.82
2023-02-27T06:47:16.359Z,5.10
2023-02-27T06:49:43.318Z,5.05
2023-02-27T06:52:10.249Z,4.95
2023-02-27T06:54:37.151Z,5.50
2023-02-27T06:57:04.053Z,5.95
2023-02-27T06:59:30.984Z,5.57
2023-02-27T07:01:58.165Z,5.13
2023-02-27T07:04:25.097Z,5.22
2023-02-27T07:07:34.108Z,5.63
2023-02-27T07:09:38.954Z,5.07
2023-02-27T07:12:06.384Z,5.50
2023-02-27T07:14:33.446Z,5.00
2023-02-27T07:17:00.435Z,4.72
2023-02-27T07:19:27.365Z,5.55
2023-02-27T07:21:54.310Z,5.13
2023-02-27T07:24:21.275Z,4.95
2023-02-27T07:26:48.231Z,5.38
2023-02-27T07:29:15.149Z,5.35
2023-02-27T07:31:42.066Z,4.90
2023-02-27T07:34:09.007Z,4.85
2023-02-27T07:36:35.940Z,4.63
2023-02-27T07:39:02.895Z,4.57
2023-02-27T07:41:31.120Z,4.53
2023-02-27T07:43:58.225Z,5.15
2023-02-27T07:46:25.306Z,4.32
2023-02-27T07:48:52.393Z,4.53
2023-02-27T07:51:34.072Z,4.60
2023-02-27T08:02:18.268Z,5.32
2023-02-27T08:04:45.298Z,4.72
2023-02-27T08:07:12.240Z,4.68
2023-02-27T08:20:55.679Z,6.68
2023-02-27T08:23:22.642Z,5.80
2023-02-27T08:25:55.903Z,5.35
2023-02-27T08:28:22.886Z,4.82
2023-02-27T08:30:49.843Z,4.47
2023-02-27T08:36:06.725Z,3.60
2023-02-27T08:52:35.408Z,3.50
2023-02-27T08:55:02.355Z,3.38
2023-02-27T08:57:29.384Z,3.72
2023-02-27T08:59:56.768Z,3.78
2023-02-27T09:02:23.976Z,4.43
2023-02-27T09:04:51.213Z,3.45
2023-02-27T09:07:18.277Z,3.20
2023-02-27T09:09:45.840Z,3.00
2023-02-27T09:15:00.932Z,2.97
2023-02-27T09:17:31.559Z,3.17
2023-02-27T09:19:58.510Z,3.47
2023-02-27T09:22:25.502Z,3.60
2023-02-27T09:27:33.272Z,3.00
2023-02-27T09:30:00.211Z,2.55
2023-02-27T09:32:27.323Z,3.28
2023-02-27T09:34:55.339Z,4.63
2023-02-27T09:37:22.255Z,4.60
2023-02-27T09:39:49.198Z,3.53
2023-02-27T09:42:16.263Z,2.75
2023-02-27T09:44:46.966Z,2.38
2023-02-27T09:47:14.444Z,2.72
2023-02-27T09:49:41.333Z,3.00
2023-02-27T09:52:08.251Z,3.45
2023-02-27T09:54:35.173Z,2.33
2023-02-27T09:57:02.291Z,2.30
2023-02-27T09:59:29.198Z,2.05
2023-02-27T10:01:56.130Z,2.10
2023-02-27T10:04:23.045Z,2.00
2023-02-27T10:06:49.983Z,2.30
2023-02-27T10:09:16.928Z,2.17
2023-02-27T10:11:43.841Z,2.00
2023-02-27T10:14:10.801Z,2.08
2023-02-27T10:16:37.788Z,2.05
2023-02-27T10:19:04.734Z,2.30
2023-02-27T10:21:32.071Z,1.98
2023-02-27T10:23:59.198Z,1.90
2023-02-27T10:26:26.138Z,2.20
2023-02-27T10:28:53.066Z,1.70
2023-02-27T10:31:21.136Z,2.10
2023-02-27T10:33:48.421Z,1.75
2023-02-27T10:36:30.666Z,1.75
2023-02-27T10:38:59.827Z,1.95
2023-02-27T10:41:27.067Z,1.67
2023-02-27T10:43:54.371Z,1.90
2023-02-27T10:46:21.543Z,1.70
2023-02-27T10:48:48.507Z,1.85
2023-02-27T10:51:16.416Z,1.80
2023-02-27T10:53:43.330Z,1.85
2023-02-27T10:56:10.283Z,2.15
2023-02-27T10:58:37.202Z,2.05
2023-02-27T11:01:04.130Z,2.20
2023-02-27T11:03:31.050Z,1.90
2023-02-27T11:05:57.994Z,2.00
2023-02-27T11:08:24.972Z,1.85
2023-02-27T11:10:51.891Z,1.98
2023-02-27T11:13:18.831Z,1.95
2023-02-27T11:15:45.776Z,1.63
2023-02-27T11:18:12.711Z,1.70
2023-02-27T11:20:39.617Z,2.03
2023-02-27T11:23:07.408Z,2.20
2023-02-27T11:25:34.353Z,1.90
2023-02-27T11:28:01.387Z,2.30
2023-02-27T11:30:28.367Z,1.73
2023-02-27T11:32:55.298Z,2.20
2023-02-27T11:35:22.220Z,1.50
2023-02-27T11:37:49.150Z,1.55
2023-02-27T11:40:16.173Z,2.10
2023-02-27T11:42:43.203Z,1.98
2023-02-27T11:45:10.257Z,2.08
2023-02-27T11:47:37.215Z,1.92
2023-02-27T11:50:04.158Z,1.83
2023-02-27T11:52:31.148Z,1.60
2023-02-27T11:55:01.178Z,1.65
2023-02-27T11:57:29.675Z,1.77
2023-02-27T11:59:56.623Z,1.65
2023-02-27T12:02:23.614Z,1.70
2023-02-27T12:04:50.808Z,2.10
2023-02-27T12:07:17.826Z,1.63
2023-02-27T12:09:44.722Z,2.00
2023-02-27T12:12:11.648Z,1.60
2023-02-27T12:14:38.596Z,1.77
2023-02-27T12:17:05.507Z,1.67
2023-02-27T12:19:32.413Z,1.83
2023-02-27T12:21:59.344Z,1.60
2023-02-27T12:24:26.243Z,1.70
2023-02-27T12:26:53.160Z,1.63
2023-02-27T12:29:20.050Z,1.60
2023-02-27T12:31:48.211Z,1.52
2023-02-27T12:34:15.265Z,1.85
2023-02-27T12:36:42.238Z,1.65
2023-02-27T12:39:09.129Z,1.70
2023-02-27T12:41:36.060Z,2.10
2023-02-27T12:44:02.965Z,1.90
2023-02-27T12:46:29.851Z,1.60
2023-02-27T12:48:56.788Z,2.30
2023-02-27T12:51:23.704Z,2.78
2023-02-27T12:53:50.611Z,4.25
2023-02-27T12:56:17.620Z,4.10
2023-02-27T12:58:44.567Z,4.85
2023-02-27T13:01:11.538Z,2.55
2023-02-27T13:03:38.536Z,3.88
2023-02-27T13:06:05.589Z,2.15
2023-02-27T13:08:32.508Z,2.50
2023-02-27T13:10:59.486Z,3.88
2023-02-27T13:13:26.423Z,2.67
2023-02-27T13:15:53.379Z,2.15
2023-02-27T13:18:22.626Z,2.00
2023-02-27T13:20:50.478Z,1.77
2023-02-27T13:23:17.421Z,2.30
2023-02-27T13:25:44.502Z,1.70
2023-02-27T13:28:11.468Z,1.83
2023-02-27T13:30:38.404Z,1.80
2023-02-27T13:33:05.537Z,1.73
2023-02-27T13:35:32.616Z,2.03
2023-02-27T13:37:59.595Z,1.50
2023-02-27T13:40:26.527Z,1.95
2023-02-27T13:42:53.718Z,1.63
2023-02-27T13:45:20.780Z,1.85
2023-02-27T13:47:47.716Z,1.90
2023-02-27T13:50:14.641Z,2.08
2023-02-27T13:52:41.564Z,2.00
2023-02-27T13:55:12.142Z,1.88
2023-02-27T13:57:39.419Z,2.25
2023-02-27T14:00:06.348Z,1.73
2023-02-27T14:02:33.318Z,1.70
2023-02-27T14:05:02.711Z,1.92
2023-02-27T14:07:30.121Z,1.80
2023-02-27T14:09:57.115Z,2.13
2023-02-27T14:12:25.692Z,2.28
2023-02-27T14:14:52.622Z,2.20
2023-02-27T14:17:19.577Z,1.75
2023-02-27T14:19:46.599Z,1.70
2023-02-27T14:22:13.633Z,2.13
2023-02-27T14:24:49.559Z,2.03
2023-02-27T14:27:19.932Z,1.77
2023-02-27T14:29:46.979Z,2.00
2023-02-27T14:32:13.989Z,1.83
2023-02-27T14:34:40.936Z,1.90
2023-02-27T14:37:07.927Z,2.00
2023-02-27T14:39:34.893Z,1.90
2023-02-27T14:42:02.060Z,2.25
2023-02-27T14:44:29.114Z,2.38
2023-02-27T14:46:56.062Z,2.03
2023-02-27T14:49:23.006Z,2.60
2023-02-27T14:51:50.164Z,2.58
2023-02-27T14:54:17.331Z,2.30
2023-02-27T14:56:44.254Z,2.10
2023-02-27T15:07:37.990Z,2.60
2023-02-27T15:18:52.225Z,2.60
2023-02-27T15:21:27.991Z,2.72
2023-02-27T15:23:55.029Z,2.05
2023-02-27T15:26:39.091Z,2.63
2023-02-27T15:31:51.395Z,4.75
2023-02-27T15:34:18.414Z,4.25
2023-02-27T15:36:45.379Z,3.10
2023-02-27T15:39:12.317Z,2.70
2023-02-27T15:41:39.246Z,2.60
2023-02-27T15:44:06.193Z,3.50
2023-02-27T15:46:33.198Z,2.97
2023-02-27T15:49:00.187Z,2.95
2023-02-27T15:51:27.407Z,2.63
2023-02-27T15:53:54.694Z,3.03
2023-02-27T15:56:21.601Z,2.83
2023-02-27T15:58:48.664Z,2.60
2023-02-27T16:01:15.648Z,2.55
2023-02-27T16:03:42.574Z,2.75
2023-02-27T16:06:09.545Z,2.67
2023-02-27T16:08:36.511Z,2.55
2023-02-27T16:11:03.407Z,2.30
2023-02-27T16:13:30.312Z,2.88
2023-02-27T16:15:57.264Z,2.60
2023-02-27T16:18:24.165Z,2.85
2023-02-27T16:20:51.061Z,2.60
2023-02-27T16:23:17.980Z,2.38
2023-02-27T16:25:47.350Z,2.83
2023-02-27T16:28:14.511Z,2.17
2023-02-27T16:30:41.447Z,2.35
2023-02-27T16:33:08.382Z,2.25
2023-02-27T16:35:35.410Z,2.30
2023-02-27T16:38:02.383Z,2.10
2023-02-27T16:40:29.339Z,2.30
2023-02-27T16:42:56.278Z,2.47
2023-02-27T16:45:23.193Z,2.53
2023-02-27T16:47:50.129Z,2.40
2023-02-27T16:50:17.120Z,2.70
2023-02-27T16:52:44.028Z,2.80
2023-02-27T16:55:10.965Z,3.08
2023-02-27T16:57:37.855Z,3.50
2023-02-27T17:00:04.776Z,4.75
2023-02-27T17:02:34.110Z,4.53
2023-02-27T17:05:01.084Z,4.80
2023-02-27T17:07:28.009Z,5.50
2023-02-27T17:09:54.916Z,5.25
2023-02-27T17:12:21.827Z,5.18
2023-02-27T17:14:48.737Z,5.15
2023-02-27T17:17:15.662Z,4.95
2023-02-27T17:19:45.031Z,5.07
2023-02-27T17:22:11.976Z,4.00
2023-02-27T17:24:38.909Z,4.50
2023-02-27T17:27:06.055Z,4.30
2023-02-27T17:29:33.354Z,4.15
2023-02-27T17:32:00.462Z,4.60
2023-02-27T17:34:28.040Z,4.57
2023-02-27T17:42:17.206Z,4.10
2023-02-27T17:44:45.116Z,4.30
2023-02-27T17:47:13.104Z,3.53
2023-02-27T17:49:40.216Z,5.10
2023-02-27T17:52:07.254Z,5.10
2023-02-27T17:54:34.443Z,5.75
2023-02-27T17:57:01.453Z,5.85
2023-02-27T18:02:09.322Z,6.10
2023-02-27T18:04:36.327Z,5.43
2023-02-27T18:07:03.376Z,5.18
2023-02-27T18:09:30.306Z,5.28
2023-02-27T18:11:58.911Z,5.35
2023-02-27T18:14:25.874Z,5.10
2023-02-27T18:16:52.956Z,4.85
2023-02-27T18:19:19.956Z,4.10
2023-02-27T18:21:47.035Z,3.45
2023-02-27T18:24:14.055Z,3.72
2023-02-27T18:26:41.014Z,3.83
2023-02-27T18:29:08.096Z,3.88
2023-02-27T18:31:39.399Z,3.92
2023-02-27T18:34:06.596Z,4.80
2023-02-27T18:36:33.755Z,3.35
2023-02-27T18:39:00.788Z,3.28
2023-02-27T18:41:27.848Z,2.47
2023-02-27T18:43:54.984Z,2.85
2023-02-27T18:46:21.995Z,3.00
2023-02-27T18:48:49.009Z,3.80
2023-02-27T18:51:15.991Z,5.18
2023-02-27T18:53:42.997Z,4.35
2023-02-27T18:56:09.929Z,4.00
2023-02-27T18:58:36.871Z,4.53
2023-02-27T19:01:03.800Z,4.22
2023-02-27T19:03:31.118Z,4.40
2023-02-27T19:05:58.105Z,5.38
2023-02-27T19:08:25.084Z,6.28
2023-02-27T19:10:52.035Z,5.57
2023-02-27T19:13:18.971Z,5.53
2023-02-27T19:15:46.076Z,5.43
2023-02-27T19:18:13.070Z,5.53
2023-02-27T19:20:40.104Z,5.20
2023-02-27T19:23:07.169Z,5.13
2023-02-27T19:25:35.046Z,6.22
2023-02-27T19:28:02.224Z,6.65
2023-02-27T19:30:29.139Z,6.25
2023-02-27T19:32:56.055Z,6.43
2023-02-27T19:35:23.082Z,6.75
2023-02-27T19:37:50.106Z,6.38
2023-02-27T19:40:17.034Z,6.38
2023-02-27T19:42:44.017Z,6.72
2023-02-27T19:45:15.778Z,7.75
2023-02-27T19:50:30.897Z,9.20
2023-02-27T19:52:57.944Z,7.43
2023-02-27T19:55:25.210Z,7.35
2023-02-27T20:00:40.738Z,6.50
2023-02-27T20:05:34.885Z,5.93
2023-02-27T20:56:49.751Z,8.52
2023-02-27T21:54:22.490Z,5.03
2023-02-27T21:56:56.179Z,4.78
2023-02-27T22:07:51.101Z,5.38
2023-02-27T22:10:57.800Z,5.80
2023-02-27T22:21:50.621Z,6.25
2023-02-27T22:30:15.927Z,6.40
2023-02-27T22:33:24.507Z,5.82
2023-02-27T22:34:07.805Z,5.87
2023-02-27T22:38:35.895Z,7.15
2023-02-27T22:46:29.920Z,6.13
2023-02-27T22:51:37.862Z,6.47
2023-02-27T22:54:25.555Z,5.75
2023-02-27T22:57:02.638Z,5.75
2023-02-27T22:59:46.193Z,6.05
2023-02-27T23:02:14.465Z,5.97
2023-02-27T23:10:31.221Z,5.28
2023-02-27T23:13:10.756Z,5.15
2023-02-27T23:21:02.943Z,5.53
2023-02-27T23:23:33.048Z,5.35
2023-02-27T23:26:01.618Z,5.50
2023-02-27T23:28:45.563Z,4.90
2023-02-27T23:31:22.851Z,4.72
2023-02-27T23:33:49.977Z,4.70
2023-02-27T23:44:33.167Z,4.10
2023-02-27T23:47:00.117Z,4.00
2023-02-27T23:49:27.100Z,4.00
2023-02-27T23:51:54.034Z,4.50
2023-02-27T23:54:21.123Z,4.03
2023-02-27T23:57:01.500Z,3.67
2023-02-27T23:59:30.102Z,3.63
